sensor_id;sensor_type;location;lat;lon;timestamp;P1;durP1;ratioP1;P2;durP2;ratioP2
4325;SDS011;58429;49.826;10.880;2023-02-08T00:00:40;25.9;;;19.9;;
4325;SDS011;58429;49.826;10.880;2023-02-08T00:01:40;28.2;;;21.8;;
4325;SDS011;58429;49.826;10.880;2023-02-08T00:02:40;28.2;;;21.8;;
4325;SDS011;58429;49.826;10.880;2023-02-08T00:03:40;28.2;;;21.8;;
4325;SDS011;58429;49.826;10.880;2023-02-08T00:04:40;29.5;;;20.4;;
4325;SDS011;58429;49.826;10.880;2023-02-08T00:05:40;29.5;;;20.4;;
4325;SDS011;58429;49.826;10.880;2023-02-08T00:06:40;29.5;;;20.4;;
4325;SDS011;58429;49.826;10.880;2023-02-08T00:07:40;26.3;;;19.5;;
4325;SDS011;58429;49.826;10.880;2023-02-08T00:08:40;26.3;;;19.5;;
4325;SDS011;58429;49.826;10.880;2023-02-08T00:09:40;26.3;;;19.5;;
4325;SDS011;58429;49.826;10.880;2023-02-08T00:10:45;32.2;;;22;;
4325;SDS011;58429;49.826;10.880;2023-02-08T00:11:40;32.2;;;22;;
4325;SDS011;58429;49.826;10.880;2023-02-08T00:12:40;32.2;;;22;;
4325;SDS011;58429;49.826;10.880;2023-02-08T00:13:40;30.4;;;22.1;;
4325;SDS011;58429;49.826;10.880;2023-02-08T00:14:40;30.4;;;22.1;;
4325;SDS011;58429;49.826;10.880;2023-02-08T00:15:40;30.4;;;22.1;;
4325;SDS011;58429;49.826;10.880;2023-02-08T00:16:40;29.6;;;20.9;;
4325;SDS011;58429;49.826;10.880;2023-02-08T00:17:40;29.6;;;20.9;;
4325;SDS011;58429;49.826;10.880;2023-02-08T00:18:40;29.6;;;20.9;;
4325;SDS011;58429;49.826;10.880;2023-02-08T00:19:40;31.9;;;23.5;;
4325;SDS011;58429;49.826;10.880;2023-02-08T00:20:40;31.9;;;23.5;;
4325;SDS011;58429;49.826;10.880;2023-02-08T00:21:40;31.9;;;23.5;;
4325;SDS011;58429;49.826;10.880;2023-02-08T00:22:40;31;;;23.7;;
4325;SDS011;58429;49.826;10.880;2023-02-08T00:23:40;31;;;23.7;;
4325;SDS011;58429;49.826;10.880;2023-02-08T00:24:40;31;;;23.7;;
4325;SDS011;58429;49.826;10.880;2023-02-08T00:25:40;39.1;;;29.5;;
4325;SDS011;58429;49.826;10.880;2023-02-08T00:26:40;39.1;;;29.5;;
4325;SDS011;58429;49.826;10.880;2023-02-08T00:27:40;39.1;;;29.5;;
4325;SDS011;58429;49.826;10.880;2023-02-08T00:28:40;29;;;22.8;;
4325;SDS011;58429;49.826;10.880;2023-02-08T00:29:40;29;;;22.8;;
4325;SDS011;58429;49.826;10.880;2023-02-08T00:30:40;29;;;22.8;;
4325;SDS011;58429;49.826;10.880;2023-02-08T00:31:40;28.1;;;20.4;;
4325;SDS011;58429;49.826;10.880;2023-02-08T00:32:40;28.1;;;20.4;;
4325;SDS011;58429;49.826;10.880;2023-02-08T00:33:40;28.1;;;20.4;;
4325;SDS011;58429;49.826;10.880;2023-02-08T00:34:40;26.5;;;19.3;;
4325;SDS011;58429;49.826;10.880;2023-02-08T00:35:40;26.5;;;19.3;;
4325;SDS011;58429;49.826;10.880;2023-02-08T00:36:40;26.5;;;19.3;;
4325;SDS011;58429;49.826;10.880;2023-02-08T00:37:40;28.2;;;20.8;;
4325;SDS011;58429;49.826;10.880;2023-02-08T00:38:40;28.2;;;20.8;;
4325;SDS011;58429;49.826;10.880;2023-02-08T00:39:40;28.2;;;20.8;;
4325;SDS011;58429;49.826;10.880;2023-02-08T00:40:40;27.2;;;20.1;;
4325;SDS011;58429;49.826;10.880;2023-02-08T00:41:40;27.2;;;20.1;;
4325;SDS011;58429;49.826;10.880;2023-02-08T00:42:40;27.2;;;20.1;;
4325;SDS011;58429;49.826;10.880;2023-02-08T00:43:40;27.3;;;21.1;;
4325;SDS011;58429;49.826;10.880;2023-02-08T00:44:40;27.3;;;21.1;;
4325;SDS011;58429;49.826;10.880;2023-02-08T00:45:40;27.3;;;21.1;;
4325;SDS011;58429;49.826;10.880;2023-02-08T00:46:40;26.6;;;19.9;;
4325;SDS011;58429;49.826;10.880;2023-02-08T00:47:40;26.6;;;19.9;;
4325;SDS011;58429;49.826;10.880;2023-02-08T00:48:40;26.6;;;19.9;;
4325;SDS011;58429;49.826;10.880;2023-02-08T00:49:40;28;;;19.3;;
4325;SDS011;58429;49.826;10.880;2023-02-08T00:50:40;28;;;19.3;;
4325;SDS011;58429;49.826;10.880;2023-02-08T00:51:40;28;;;19.3;;
4325;SDS011;58429;49.826;10.880;2023-02-08T00:52:40;25.5;;;17.6;;
4325;SDS011;58429;49.826;10.880;2023-02-08T00:53:41;25.5;;;17.6;;
4325;SDS011;58429;49.826;10.880;2023-02-08T00:54:40;25.5;;;17.6;;
4325;SDS011;58429;49.826;10.880;2023-02-08T00:55:40;24.8;;;18.6;;
4325;SDS011;58429;49.826;10.880;2023-02-08T00:56:40;24.8;;;18.6;;
4325;SDS011;58429;49.826;10.880;2023-02-08T00:57:40;24.8;;;18.6;;
4325;SDS011;58429;49.826;10.880;2023-02-08T00:58:40;26;;;19.2;;
4325;SDS011;58429;49.826;10.880;2023-02-08T00:59:40;26;;;19.2;;
4325;SDS011;58429;49.826;10.880;2023-02-08T01:00:40;26;;;19.2;;
4325;SDS011;58429;49.826;10.880;2023-02-08T01:01:40;26.8;;;18.3;;
4325;SDS011;58429;49.826;10.880;2023-02-08T01:02:40;26.8;;;18.3;;
4325;SDS011;58429;49.826;10.880;2023-02-08T01:03:41;26.8;;;18.3;;
4325;SDS011;58429;49.826;10.880;2023-02-08T01:04:40;26;;;18.5;;
4325;SDS011;58429;49.826;10.880;2023-02-08T01:05:40;26;;;18.5;;
4325;SDS011;58429;49.826;10.880;2023-02-08T01:06:40;26;;;18.5;;
4325;SDS011;58429;49.826;10.880;2023-02-08T01:07:40;24.9;;;18.8;;
4325;SDS011;58429;49.826;10.880;2023-02-08T01:08:40;24.9;;;18.8;;
4325;SDS011;58429;49.826;10.880;2023-02-08T01:09:40;24.9;;;18.8;;
4325;SDS011;58429;49.826;10.880;2023-02-08T01:10:40;26;;;19.3;;
4325;SDS011;58429;49.826;10.880;2023-02-08T01:11:40;26;;;19.3;;
4325;SDS011;58429;49.826;10.880;2023-02-08T01:12:40;26;;;19.3;;
4325;SDS011;58429;49.826;10.880;2023-02-08T01:13:40;25.2;;;18.3;;
4325;SDS011;58429;49.826;10.880;2023-02-08T01:14:40;25.2;;;18.3;;
4325;SDS011;58429;49.826;10.880;2023-02-08T01:15:40;25.2;;;18.3;;
4325;SDS011;58429;49.826;10.880;2023-02-08T01:16:40;25.2;;;18.3;;
4325;SDS011;58429;49.826;10.880;2023-02-08T01:17:40;26.5;;;19.7;;
4325;SDS011;58429;49.826;10.880;2023-02-08T01:18:41;26.5;;;19.7;;
4325;SDS011;58429;49.826;10.880;2023-02-08T01:19:40;26.5;;;19.7;;
4325;SDS011;58429;49.826;10.880;2023-02-08T01:20:40;29.3;;;20.4;;
4325;SDS011;58429;49.826;10.880;2023-02-08T01:21:40;29.3;;;20.4;;
4325;SDS011;58429;49.826;10.880;2023-02-08T01:22:40;29.3;;;20.4;;
4325;SDS011;58429;49.826;10.880;2023-02-08T01:23:40;29.3;;;19.8;;
4325;SDS011;58429;49.826;10.880;2023-02-08T01:24:40;29.3;;;19.8;;
4325;SDS011;58429;49.826;10.880;2023-02-08T01:25:40;29.3;;;19.8;;
4325;SDS011;58429;49.826;10.880;2023-02-08T01:26:40;32.4;;;20.2;;
4325;SDS011;58429;49.826;10.880;2023-02-08T01:27:40;32.4;;;20.2;;
4325;SDS011;58429;49.826;10.880;2023-02-08T01:28:40;32.4;;;20.2;;
4325;SDS011;58429;49.826;10.880;2023-02-08T01:29:40;29;;;19.5;;
4325;SDS011;58429;49.826;10.880;2023-02-08T01:30:40;29;;;19.5;;
4325;SDS011;58429;49.826;10.880;2023-02-08T01:31:41;29;;;19.5;;
4325;SDS011;58429;49.826;10.880;2023-02-08T01:32:40;27.2;;;20;;
4325;SDS011;58429;49.826;10.880;2023-02-08T01:33:40;27.2;;;20;;
4325;SDS011;58429;49.826;10.880;2023-02-08T01:34:40;27.2;;;20;;
4325;SDS011;58429;49.826;10.880;2023-02-08T01:35:40;24.9;;;17.6;;
4325;SDS011;58429;49.826;10.880;2023-02-08T01:36:40;24.9;;;17.6;;
4325;SDS011;58429;49.826;10.880;2023-02-08T01:37:40;24.9;;;17.6;;
4325;SDS011;58429;49.826;10.880;2023-02-08T01:38:40;26.6;;;17.6;;
4325;SDS011;58429;49.826;10.880;2023-02-08T01:39:40;26.6;;;17.6;;
4325;SDS011;58429;49.826;10.880;2023-02-08T01:40:40;26.6;;;17.6;;
4325;SDS011;58429;49.826;10.880;2023-02-08T01:41:41;27.5;;;18.4;;
4325;SDS011;58429;49.826;10.880;2023-02-08T01:42:40;27.5;;;18.4;;
4325;SDS011;58429;49.826;10.880;2023-02-08T01:45:40;25.4;;;18.1;;
4325;SDS011;58429;49.826;10.880;2023-02-08T01:46:40;25.4;;;18.1;;
4325;SDS011;58429;49.826;10.880;2023-02-08T01:47:40;23.7;;;17.2;;
4325;SDS011;58429;49.826;10.880;2023-02-08T01:48:40;23.7;;;17.2;;
4325;SDS011;58429;49.826;10.880;2023-02-08T01:49:40;23.7;;;17.2;;
4325;SDS011;58429;49.826;10.880;2023-02-08T01:50:41;24.9;;;16.8;;
4325;SDS011;58429;49.826;10.880;2023-02-08T01:51:41;24.9;;;16.8;;
4325;SDS011;58429;49.826;10.880;2023-02-08T01:52:40;24.9;;;16.8;;
4325;SDS011;58429;49.826;10.880;2023-02-08T01:53:40;27.3;;;16.8;;
4325;SDS011;58429;49.826;10.880;2023-02-08T01:54:41;27.3;;;16.8;;
4325;SDS011;58429;49.826;10.880;2023-02-08T01:55:41;27.3;;;16.8;;
4325;SDS011;58429;49.826;10.880;2023-02-08T01:56:40;25.2;;;17;;
4325;SDS011;58429;49.826;10.880;2023-02-08T01:57:40;25.2;;;17;;
4325;SDS011;58429;49.826;10.880;2023-02-08T01:58:41;25.2;;;17;;
4325;SDS011;58429;49.826;10.880;2023-02-08T01:59:41;27.4;;;18.3;;
4325;SDS011;58429;49.826;10.880;2023-02-08T02:00:40;27.4;;;18.3;;
4325;SDS011;58429;49.826;10.880;2023-02-08T02:01:40;27.4;;;18.3;;
4325;SDS011;58429;49.826;10.880;2023-02-08T02:02:40;28.3;;;19;;
4325;SDS011;58429;49.826;10.880;2023-02-08T02:03:40;28.3;;;19;;
4325;SDS011;58429;49.826;10.880;2023-02-08T02:04:40;28.3;;;19;;
4325;SDS011;58429;49.826;10.880;2023-02-08T02:05:41;23.9;;;18.1;;
4325;SDS011;58429;49.826;10.880;2023-02-08T02:06:41;23.9;;;18.1;;
4325;SDS011;58429;49.826;10.880;2023-02-08T02:07:40;23.9;;;18.1;;
4325;SDS011;58429;49.826;10.880;2023-02-08T02:08:41;28.6;;;18.8;;
4325;SDS011;58429;49.826;10.880;2023-02-08T02:09:41;28.6;;;18.8;;
4325;SDS011;58429;49.826;10.880;2023-02-08T02:10:41;28.6;;;18.8;;
4325;SDS011;58429;49.826;10.880;2023-02-08T02:11:40;33.9;;;19.2;;
4325;SDS011;58429;49.826;10.880;2023-02-08T02:12:40;33.9;;;19.2;;
4325;SDS011;58429;49.826;10.880;2023-02-08T02:13:40;33.9;;;19.2;;
4325;SDS011;58429;49.826;10.880;2023-02-08T02:14:40;28.9;;;18.8;;
4325;SDS011;58429;49.826;10.880;2023-02-08T02:15:40;28.9;;;18.8;;
4325;SDS011;58429;49.826;10.880;2023-02-08T02:16:40;28.9;;;18.8;;
4325;SDS011;58429;49.826;10.880;2023-02-08T02:17:40;27.9;;;18.2;;
4325;SDS011;58429;49.826;10.880;2023-02-08T02:18:40;27.9;;;18.2;;
4325;SDS011;58429;49.826;10.880;2023-02-08T02:19:43;27.9;;;18.2;;
4325;SDS011;58429;49.826;10.880;2023-02-08T02:20:44;27.5;;;18.3;;
4325;SDS011;58429;49.826;10.880;2023-02-08T02:21:45;27.5;;;18.3;;
4325;SDS011;58429;49.826;10.880;2023-02-08T02:22:48;27.5;;;18.3;;
4325;SDS011;58429;49.826;10.880;2023-02-08T02:23:54;26.9;;;16.9;;
4325;SDS011;58429;49.826;10.880;2023-02-08T02:24:49;26.9;;;16.9;;
4325;SDS011;58429;49.826;10.880;2023-02-08T02:25:49;26.9;;;16.9;;
4325;SDS011;58429;49.826;10.880;2023-02-08T02:27:15;24.5;;;17.3;;
4325;SDS011;58429;49.826;10.880;2023-02-08T02:27:45;24.5;;;17.3;;
4325;SDS011;58429;49.826;10.880;2023-02-08T02:28:47;24.5;;;17.3;;
4325;SDS011;58429;49.826;10.880;2023-02-08T02:29:46;24.2;;;15.7;;
4325;SDS011;58429;49.826;10.880;2023-02-08T02:31:06;24.2;;;15.7;;
4325;SDS011;58429;49.826;10.880;2023-02-08T02:31:50;24.2;;;15.7;;
4325;SDS011;58429;49.826;10.880;2023-02-08T02:32:43;23.7;;;16.6;;
4325;SDS011;58429;49.826;10.880;2023-02-08T02:33:44;23.7;;;16.6;;
4325;SDS011;58429;49.826;10.880;2023-02-08T02:34:42;23.7;;;16.6;;
4325;SDS011;58429;49.826;10.880;2023-02-08T02:35:41;24.9;;;16.8;;
4325;SDS011;58429;49.826;10.880;2023-02-08T02:36:42;24.9;;;16.8;;
4325;SDS011;58429;49.826;10.880;2023-02-08T02:37:45;24.9;;;16.8;;
4325;SDS011;58429;49.826;10.880;2023-02-08T02:38:43;21.2;;;16.6;;
4325;SDS011;58429;49.826;10.880;2023-02-08T02:39:42;21.2;;;16.6;;
4325;SDS011;58429;49.826;10.880;2023-02-08T02:40:42;21.2;;;16.6;;
4325;SDS011;58429;49.826;10.880;2023-02-08T02:41:41;23.2;;;16.8;;
4325;SDS011;58429;49.826;10.880;2023-02-08T02:42:42;23.2;;;16.8;;
4325;SDS011;58429;49.826;10.880;2023-02-08T02:43:41;23.2;;;16.8;;
4325;SDS011;58429;49.826;10.880;2023-02-08T02:44:42;23.8;;;16.4;;
4325;SDS011;58429;49.826;10.880;2023-02-08T02:45:43;23.8;;;16.4;;
4325;SDS011;58429;49.826;10.880;2023-02-08T02:46:40;23.8;;;16.4;;
4325;SDS011;58429;49.826;10.880;2023-02-08T02:47:41;24.8;;;16.1;;
4325;SDS011;58429;49.826;10.880;2023-02-08T02:48:41;24.8;;;16.1;;
4325;SDS011;58429;49.826;10.880;2023-02-08T02:49:43;24.8;;;16.1;;
4325;SDS011;58429;49.826;10.880;2023-02-08T02:50:40;22.9;;;16.9;;
4325;SDS011;58429;49.826;10.880;2023-02-08T02:51:41;22.9;;;16.9;;
4325;SDS011;58429;49.826;10.880;2023-02-08T02:52:41;22.9;;;16.9;;
4325;SDS011;58429;49.826;10.880;2023-02-08T02:53:42;24.1;;;15.8;;
4325;SDS011;58429;49.826;10.880;2023-02-08T02:54:41;24.1;;;15.8;;
4325;SDS011;58429;49.826;10.880;2023-02-08T02:55:41;24.1;;;15.8;;
4325;SDS011;58429;49.826;10.880;2023-02-08T02:56:41;25.4;;;16;;
4325;SDS011;58429;49.826;10.880;2023-02-08T02:57:40;25.4;;;16;;
4325;SDS011;58429;49.826;10.880;2023-02-08T02:58:40;25.4;;;16;;
4325;SDS011;58429;49.826;10.880;2023-02-08T02:59:40;25.4;;;16;;
4325;SDS011;58429;49.826;10.880;2023-02-08T03:00:40;25.6;;;17;;
4325;SDS011;58429;49.826;10.880;2023-02-08T03:01:41;25.6;;;17;;
4325;SDS011;58429;49.826;10.880;2023-02-08T03:02:40;25.6;;;17;;
4325;SDS011;58429;49.826;10.880;2023-02-08T03:03:40;23.3;;;16.1;;
4325;SDS011;58429;49.826;10.880;2023-02-08T03:04:49;23.3;;;16.1;;
4325;SDS011;58429;49.826;10.880;2023-02-08T03:05:40;23.3;;;16.1;;
4325;SDS011;58429;49.826;10.880;2023-02-08T03:06:43;24.1;;;16.9;;
4325;SDS011;58429;49.826;10.880;2023-02-08T03:07:46;24.1;;;16.9;;
4325;SDS011;58429;49.826;10.880;2023-02-08T03:08:48;24.1;;;16.9;;
4325;SDS011;58429;49.826;10.880;2023-02-08T03:09:44;22.1;;;15.4;;
4325;SDS011;58429;49.826;10.880;2023-02-08T03:11:41;22.1;;;15.4;;
4325;SDS011;58429;49.826;10.880;2023-02-08T03:11:45;22.1;;;15.4;;
4325;SDS011;58429;49.826;10.880;2023-02-08T03:12:42;21.3;;;15.6;;
4325;SDS011;58429;49.826;10.880;2023-02-08T03:13:44;21.3;;;15.6;;
4325;SDS011;58429;49.826;10.880;2023-02-08T03:14:40;21.3;;;15.6;;
4325;SDS011;58429;49.826;10.880;2023-02-08T03:15:43;22.5;;;16.1;;
4325;SDS011;58429;49.826;10.880;2023-02-08T03:16:43;22.5;;;16.1;;
4325;SDS011;58429;49.826;10.880;2023-02-08T03:17:45;22.5;;;16.1;;
4325;SDS011;58429;49.826;10.880;2023-02-08T03:18:42;22.3;;;15.8;;
4325;SDS011;58429;49.826;10.880;2023-02-08T03:19:42;22.3;;;15.8;;
4325;SDS011;58429;49.826;10.880;2023-02-08T03:20:41;22.3;;;15.8;;
4325;SDS011;58429;49.826;10.880;2023-02-08T03:21:41;22.3;;;15.9;;
4325;SDS011;58429;49.826;10.880;2023-02-08T03:22:42;22.3;;;15.9;;
4325;SDS011;58429;49.826;10.880;2023-02-08T03:23:42;22.3;;;15.9;;
4325;SDS011;58429;49.826;10.880;2023-02-08T03:24:43;22.8;;;15.1;;
4325;SDS011;58429;49.826;10.880;2023-02-08T03:25:42;22.8;;;15.1;;
4325;SDS011;58429;49.826;10.880;2023-02-08T03:26:41;22.8;;;15.1;;
4325;SDS011;58429;49.826;10.880;2023-02-08T03:27:43;23.2;;;15.4;;
4325;SDS011;58429;49.826;10.880;2023-02-08T03:28:45;23.2;;;15.4;;
4325;SDS011;58429;49.826;10.880;2023-02-08T03:29:42;23.2;;;15.4;;
4325;SDS011;58429;49.826;10.880;2023-02-08T03:30:42;23.6;;;15.1;;
4325;SDS011;58429;49.826;10.880;2023-02-08T03:31:41;23.6;;;15.1;;
4325;SDS011;58429;49.826;10.880;2023-02-08T03:32:41;23.6;;;15.1;;
4325;SDS011;58429;49.826;10.880;2023-02-08T03:33:41;23.5;;;16.3;;
4325;SDS011;58429;49.826;10.880;2023-02-08T03:34:42;23.5;;;16.3;;
4325;SDS011;58429;49.826;10.880;2023-02-08T03:35:41;23.5;;;16.3;;
4325;SDS011;58429;49.826;10.880;2023-02-08T03:36:41;22.9;;;16;;
4325;SDS011;58429;49.826;10.880;2023-02-08T03:37:41;22.9;;;16;;
4325;SDS011;58429;49.826;10.880;2023-02-08T03:38:41;22.9;;;16;;
4325;SDS011;58429;49.826;10.880;2023-02-08T03:39:40;23.1;;;16.1;;
4325;SDS011;58429;49.826;10.880;2023-02-08T03:40:41;23.1;;;16.1;;
4325;SDS011;58429;49.826;10.880;2023-02-08T03:41:41;23.1;;;16.1;;
4325;SDS011;58429;49.826;10.880;2023-02-08T03:42:40;22.4;;;16.2;;
4325;SDS011;58429;49.826;10.880;2023-02-08T03:43:41;22.4;;;16.2;;
4325;SDS011;58429;49.826;10.880;2023-02-08T03:44:41;22.4;;;16.2;;
4325;SDS011;58429;49.826;10.880;2023-02-08T03:45:41;22.7;;;14.7;;
4325;SDS011;58429;49.826;10.880;2023-02-08T03:46:41;22.7;;;14.7;;
4325;SDS011;58429;49.826;10.880;2023-02-08T03:47:40;22.7;;;14.7;;
4325;SDS011;58429;49.826;10.880;2023-02-08T03:48:41;24.1;;;15.4;;
4325;SDS011;58429;49.826;10.880;2023-02-08T03:49:40;24.1;;;15.4;;
4325;SDS011;58429;49.826;10.880;2023-02-08T03:50:41;24.1;;;15.4;;
4325;SDS011;58429;49.826;10.880;2023-02-08T03:51:40;23.5;;;14.6;;
4325;SDS011;58429;49.826;10.880;2023-02-08T03:52:40;23.5;;;14.6;;
4325;SDS011;58429;49.826;10.880;2023-02-08T03:53:40;23.5;;;14.6;;
4325;SDS011;58429;49.826;10.880;2023-02-08T03:54:41;21.2;;;14.1;;
4325;SDS011;58429;49.826;10.880;2023-02-08T03:55:40;21.2;;;14.1;;
4325;SDS011;58429;49.826;10.880;2023-02-08T03:56:43;21.2;;;14.1;;
4325;SDS011;58429;49.826;10.880;2023-02-08T03:57:42;21.2;;;14.5;;
4325;SDS011;58429;49.826;10.880;2023-02-08T03:58:41;21.2;;;14.5;;
4325;SDS011;58429;49.826;10.880;2023-02-08T03:59:41;21.2;;;14.5;;
4325;SDS011;58429;49.826;10.880;2023-02-08T04:00:41;19.6;;;13.2;;
4325;SDS011;58429;49.826;10.880;2023-02-08T04:01:41;19.6;;;13.2;;
4325;SDS011;58429;49.826;10.880;2023-02-08T04:02:42;19.6;;;13.2;;
4325;SDS011;58429;49.826;10.880;2023-02-08T04:03:40;21.8;;;14;;
4325;SDS011;58429;49.826;10.880;2023-02-08T04:04:41;21.8;;;14;;
4325;SDS011;58429;49.826;10.880;2023-02-08T04:05:40;21.8;;;14;;
4325;SDS011;58429;49.826;10.880;2023-02-08T04:06:40;21.1;;;13.3;;
4325;SDS011;58429;49.826;10.880;2023-02-08T04:07:40;21.1;;;13.3;;
4325;SDS011;58429;49.826;10.880;2023-02-08T04:08:40;21.1;;;13.3;;
4325;SDS011;58429;49.826;10.880;2023-02-08T04:09:40;22.4;;;14.4;;
4325;SDS011;58429;49.826;10.880;2023-02-08T04:10:40;22.4;;;14.4;;
4325;SDS011;58429;49.826;10.880;2023-02-08T04:11:40;22.4;;;14.4;;
4325;SDS011;58429;49.826;10.880;2023-02-08T04:12:40;21.9;;;14.3;;
4325;SDS011;58429;49.826;10.880;2023-02-08T04:13:40;21.9;;;14.3;;
4325;SDS011;58429;49.826;10.880;2023-02-08T04:14:40;21.9;;;14.3;;
4325;SDS011;58429;49.826;10.880;2023-02-08T04:15:40;22.9;;;14.2;;
4325;SDS011;58429;49.826;10.880;2023-02-08T04:16:40;22.9;;;14.2;;
4325;SDS011;58429;49.826;10.880;2023-02-08T04:17:40;22.9;;;14.2;;
4325;SDS011;58429;49.826;10.880;2023-02-08T04:18:40;22.5;;;14.3;;
4325;SDS011;58429;49.826;10.880;2023-02-08T04:19:40;22.5;;;14.3;;
4325;SDS011;58429;49.826;10.880;2023-02-08T04:20:40;22.5;;;14.3;;
4325;SDS011;58429;49.826;10.880;2023-02-08T04:21:40;26.2;;;16.2;;
4325;SDS011;58429;49.826;10.880;2023-02-08T04:22:40;26.2;;;16.2;;
4325;SDS011;58429;49.826;10.880;2023-02-08T04:23:40;26.2;;;16.2;;
4325;SDS011;58429;49.826;10.880;2023-02-08T04:24:40;28.6;;;16.7;;
4325;SDS011;58429;49.826;10.880;2023-02-08T04:25:40;28.6;;;16.7;;
4325;SDS011;58429;49.826;10.880;2023-02-08T04:26:40;28.6;;;16.7;;
4325;SDS011;58429;49.826;10.880;2023-02-08T04:27:40;25.1;;;17;;
4325;SDS011;58429;49.826;10.880;2023-02-08T04:28:40;25.1;;;17;;
4325;SDS011;58429;49.826;10.880;2023-02-08T04:29:40;25.1;;;17;;
4325;SDS011;58429;49.826;10.880;2023-02-08T04:30:40;26.9;;;15.9;;
4325;SDS011;58429;49.826;10.880;2023-02-08T04:31:40;26.9;;;15.9;;
4325;SDS011;58429;49.826;10.880;2023-02-08T04:32:40;26.9;;;15.9;;
4325;SDS011;58429;49.826;10.880;2023-02-08T04:33:40;23.8;;;13.7;;
4325;SDS011;58429;49.826;10.880;2023-02-08T04:34:40;23.8;;;13.7;;
4325;SDS011;58429;49.826;10.880;2023-02-08T04:35:40;23.8;;;13.7;;
4325;SDS011;58429;49.826;10.880;2023-02-08T04:36:40;23.7;;;14.3;;
4325;SDS011;58429;49.826;10.880;2023-02-08T04:37:40;23.7;;;14.3;;
4325;SDS011;58429;49.826;10.880;2023-02-08T04:38:40;23.7;;;14.3;;
4325;SDS011;58429;49.826;10.880;2023-02-08T04:39:40;23.7;;;14.3;;
4325;SDS011;58429;49.826;10.880;2023-02-08T04:40:40;23.5;;;13.7;;
4325;SDS011;58429;49.826;10.880;2023-02-08T04:41:40;23.5;;;13.7;;
4325;SDS011;58429;49.826;10.880;2023-02-08T04:42:40;23.5;;;13.7;;
4325;SDS011;58429;49.826;10.880;2023-02-08T04:43:40;25.6;;;15.5;;
4325;SDS011;58429;49.826;10.880;2023-02-08T04:44:40;25.6;;;15.5;;
4325;SDS011;58429;49.826;10.880;2023-02-08T04:45:40;25.6;;;15.5;;
4325;SDS011;58429;49.826;10.880;2023-02-08T04:46:40;25.9;;;15;;
4325;SDS011;58429;49.826;10.880;2023-02-08T04:47:40;25.9;;;15;;
4325;SDS011;58429;49.826;10.880;2023-02-08T04:48:40;25.9;;;15;;
4325;SDS011;58429;49.826;10.880;2023-02-08T04:49:40;35.1;;;19.2;;
4325;SDS011;58429;49.826;10.880;2023-02-08T04:50:40;35.1;;;19.2;;
4325;SDS011;58429;49.826;10.880;2023-02-08T04:51:40;35.1;;;19.2;;
4325;SDS011;58429;49.826;10.880;2023-02-08T04:52:40;30.2;;;17.3;;
4325;SDS011;58429;49.826;10.880;2023-02-08T04:53:40;30.2;;;17.3;;
4325;SDS011;58429;49.826;10.880;2023-02-08T04:54:40;30.2;;;17.3;;
4325;SDS011;58429;49.826;10.880;2023-02-08T04:55:40;25.9;;;16;;
4325;SDS011;58429;49.826;10.880;2023-02-08T04:56:40;25.9;;;16;;
4325;SDS011;58429;49.826;10.880;2023-02-08T04:57:40;25.9;;;16;;
4325;SDS011;58429;49.826;10.880;2023-02-08T04:58:40;23.9;;;14.7;;
4325;SDS011;58429;49.826;10.880;2023-02-08T04:59:40;23.9;;;14.7;;
4325;SDS011;58429;49.826;10.880;2023-02-08T05:00:40;23.9;;;14.7;;
4325;SDS011;58429;49.826;10.880;2023-02-08T05:01:40;26.1;;;15.3;;
4325;SDS011;58429;49.826;10.880;2023-02-08T05:02:40;26.1;;;15.3;;
4325;SDS011;58429;49.826;10.880;2023-02-08T05:03:40;26.1;;;15.3;;
4325;SDS011;58429;49.826;10.880;2023-02-08T05:04:40;22.7;;;14.4;;
4325;SDS011;58429;49.826;10.880;2023-02-08T05:05:40;22.7;;;14.4;;
4325;SDS011;58429;49.826;10.880;2023-02-08T05:06:40;22.7;;;14.4;;
4325;SDS011;58429;49.826;10.880;2023-02-08T05:07:40;23.5;;;14;;
4325;SDS011;58429;49.826;10.880;2023-02-08T05:08:40;23.5;;;14;;
4325;SDS011;58429;49.826;10.880;2023-02-08T05:09:40;23.5;;;14;;
4325;SDS011;58429;49.826;10.880;2023-02-08T05:10:42;23.2;;;15.1;;
4325;SDS011;58429;49.826;10.880;2023-02-08T05:11:40;23.2;;;15.1;;
4325;SDS011;58429;49.826;10.880;2023-02-08T05:12:40;23.2;;;15.1;;
4325;SDS011;58429;49.826;10.880;2023-02-08T05:13:40;25.5;;;14.9;;
4325;SDS011;58429;49.826;10.880;2023-02-08T05:14:40;25.5;;;14.9;;
4325;SDS011;58429;49.826;10.880;2023-02-08T05:15:40;25.5;;;14.9;;
4325;SDS011;58429;49.826;10.880;2023-02-08T05:16:40;26.8;;;15.6;;
4325;SDS011;58429;49.826;10.880;2023-02-08T05:17:40;26.8;;;15.6;;
4325;SDS011;58429;49.826;10.880;2023-02-08T05:18:40;26.8;;;15.6;;
4325;SDS011;58429;49.826;10.880;2023-02-08T05:19:40;23.3;;;14.9;;
4325;SDS011;58429;49.826;10.880;2023-02-08T05:20:40;23.3;;;14.9;;
4325;SDS011;58429;49.826;10.880;2023-02-08T05:21:40;23.3;;;14.9;;
4325;SDS011;58429;49.826;10.880;2023-02-08T05:22:40;24.8;;;15.3;;
4325;SDS011;58429;49.826;10.880;2023-02-08T05:23:40;24.8;;;15.3;;
4325;SDS011;58429;49.826;10.880;2023-02-08T05:24:40;24.8;;;15.3;;
4325;SDS011;58429;49.826;10.880;2023-02-08T05:25:40;26.3;;;15.1;;
4325;SDS011;58429;49.826;10.880;2023-02-08T05:26:40;26.3;;;15.1;;
4325;SDS011;58429;49.826;10.880;2023-02-08T05:27:40;26.3;;;15.1;;
4325;SDS011;58429;49.826;10.880;2023-02-08T05:28:40;24.7;;;15.8;;
4325;SDS011;58429;49.826;10.880;2023-02-08T05:29:40;24.7;;;15.8;;
4325;SDS011;58429;49.826;10.880;2023-02-08T05:30:40;24.7;;;15.8;;
4325;SDS011;58429;49.826;10.880;2023-02-08T05:31:40;23.8;;;14.3;;
4325;SDS011;58429;49.826;10.880;2023-02-08T05:32:40;23.8;;;14.3;;
4325;SDS011;58429;49.826;10.880;2023-02-08T05:33:40;23.8;;;14.3;;
4325;SDS011;58429;49.826;10.880;2023-02-08T05:34:40;24.2;;;14.7;;
4325;SDS011;58429;49.826;10.880;2023-02-08T05:35:40;24.2;;;14.7;;
4325;SDS011;58429;49.826;10.880;2023-02-08T05:36:40;24.2;;;14.7;;
4325;SDS011;58429;49.826;10.880;2023-02-08T05:37:40;23.3;;;14.6;;
4325;SDS011;58429;49.826;10.880;2023-02-08T05:38:40;23.3;;;14.6;;
4325;SDS011;58429;49.826;10.880;2023-02-08T05:39:40;23.3;;;14.6;;
4325;SDS011;58429;49.826;10.880;2023-02-08T05:40:40;22.5;;;13.7;;
4325;SDS011;58429;49.826;10.880;2023-02-08T05:41:40;22.5;;;13.7;;
4325;SDS011;58429;49.826;10.880;2023-02-08T05:42:40;22.5;;;13.7;;
4325;SDS011;58429;49.826;10.880;2023-02-08T05:43:40;20.4;;;12.9;;
4325;SDS011;58429;49.826;10.880;2023-02-08T05:44:40;20.4;;;12.9;;
4325;SDS011;58429;49.826;10.880;2023-02-08T05:45:40;20.4;;;12.9;;
4325;SDS011;58429;49.826;10.880;2023-02-08T05:46:40;22.1;;;13.2;;
4325;SDS011;58429;49.826;10.880;2023-02-08T05:47:40;22.1;;;13.2;;
4325;SDS011;58429;49.826;10.880;2023-02-08T05:48:40;22.1;;;13.2;;
4325;SDS011;58429;49.826;10.880;2023-02-08T05:49:40;22.7;;;13.7;;
4325;SDS011;58429;49.826;10.880;2023-02-08T05:50:40;22.7;;;13.7;;
4325;SDS011;58429;49.826;10.880;2023-02-08T05:51:40;22.7;;;13.7;;
4325;SDS011;58429;49.826;10.880;2023-02-08T05:52:41;23.1;;;14;;
4325;SDS011;58429;49.826;10.880;2023-02-08T05:53:40;23.1;;;14;;
4325;SDS011;58429;49.826;10.880;2023-02-08T05:54:40;23.1;;;14;;
4325;SDS011;58429;49.826;10.880;2023-02-08T05:55:42;20.2;;;13.4;;
4325;SDS011;58429;49.826;10.880;2023-02-08T05:56:40;20.2;;;13.4;;
4325;SDS011;58429;49.826;10.880;2023-02-08T05:57:40;20.2;;;13.4;;
4325;SDS011;58429;49.826;10.880;2023-02-08T05:58:40;22.9;;;13.1;;
4325;SDS011;58429;49.826;10.880;2023-02-08T05:59:40;22.9;;;13.1;;
4325;SDS011;58429;49.826;10.880;2023-02-08T06:00:40;22.9;;;13.1;;
4325;SDS011;58429;49.826;10.880;2023-02-08T06:01:40;19.1;;;12.7;;
4325;SDS011;58429;49.826;10.880;2023-02-08T06:02:40;19.1;;;12.7;;
4325;SDS011;58429;49.826;10.880;2023-02-08T06:03:40;19.1;;;12.7;;
4325;SDS011;58429;49.826;10.880;2023-02-08T06:04:40;21.2;;;12.4;;
4325;SDS011;58429;49.826;10.880;2023-02-08T06:05:40;21.2;;;12.4;;